createdAt,value
2022-09-02T00:01:01.111Z,0.65
2022-09-02T00:03:28.863Z,0.57
2022-09-02T00:05:55.352Z,0.50
2022-09-02T00:08:21.871Z,0.40
2022-09-02T00:10:48.365Z,0.50
2022-09-02T00:13:16.297Z,0.50
2022-09-02T00:15:43.456Z,0.50
2022-09-02T00:18:15.632Z,0.43
2022-09-02T00:20:45.583Z,0.30
2022-09-02T00:23:12.960Z,0.40
2022-09-02T00:25:39.925Z,0.57
2022-09-02T00:28:06.950Z,0.32
2022-09-02T00:30:34.270Z,0.40
2022-09-02T00:33:00.782Z,0.47
2022-09-02T00:35:27.985Z,0.38
2022-09-02T00:37:54.430Z,0.40
2022-09-02T00:40:21.096Z,0.40
2022-09-02T00:42:47.784Z,0.40
2022-09-02T00:45:15.002Z,0.30
2022-09-02T00:47:41.530Z,0.40
2022-09-02T00:50:09.708Z,0.38
2022-09-02T00:52:41.027Z,0.30
2022-09-02T00:55:12.717Z,0.37
2022-09-02T00:57:44.804Z,0.50
2022-09-02T01:02:39.176Z,0.38
2022-09-02T01:05:08.373Z,0.40
2022-09-02T01:07:38.646Z,0.30
2022-09-02T01:10:06.419Z,0.30
2022-09-02T01:12:32.949Z,0.47
2022-09-02T01:14:59.559Z,0.30
2022-09-02T01:17:26.765Z,0.35
2022-09-02T01:20:02.801Z,0.40
2022-09-02T01:22:30.788Z,0.40
2022-09-02T01:25:00.024Z,0.40
2022-09-02T01:27:27.566Z,0.38
2022-09-02T01:29:55.199Z,0.50
2022-09-02T01:32:22.466Z,0.38
2022-09-02T01:34:48.878Z,0.30
2022-09-02T01:37:15.684Z,0.40
2022-09-02T01:39:42.492Z,0.40
2022-09-02T01:42:08.987Z,0.40
2022-09-02T01:44:43.966Z,0.38
2022-09-02T01:47:11.277Z,0.45
2022-09-02T01:49:37.684Z,0.40
2022-09-02T01:52:04.637Z,0.30
2022-09-02T01:54:31.124Z,0.30
2022-09-02T01:56:57.586Z,0.28
2022-09-02T01:59:24.025Z,0.30
2022-09-02T02:01:50.607Z,0.30
2022-09-02T02:04:17.162Z,0.38
2022-09-02T02:06:44.576Z,0.20
2022-09-02T02:09:11.735Z,0.30
2022-09-02T02:11:39.209Z,0.30
2022-09-02T02:14:06.036Z,0.20
2022-09-02T02:16:32.550Z,0.50
2022-09-02T02:18:59.446Z,0.40
2022-09-02T02:21:26.051Z,0.30
2022-09-02T02:23:52.538Z,0.20
2022-09-02T02:26:19.010Z,0.40
2022-09-02T02:28:46.912Z,0.30
2022-09-02T02:31:13.702Z,0.20
2022-09-02T02:33:40.262Z,0.30
2022-09-02T02:36:07.272Z,0.25
2022-09-02T02:38:34.615Z,0.20
2022-09-02T02:41:02.089Z,0.30
2022-09-02T02:43:28.605Z,0.25
2022-09-02T02:45:55.055Z,0.20
2022-09-02T02:48:22.028Z,0.20
2022-09-02T02:50:48.484Z,0.30
2022-09-02T02:53:15.051Z,0.20
2022-09-02T02:55:41.628Z,0.32
2022-09-02T02:58:08.047Z,0.25
2022-09-02T03:00:34.709Z,0.30
2022-09-02T03:03:04.636Z,0.30
2022-09-02T03:05:31.643Z,0.20
2022-09-02T03:07:58.162Z,0.30
2022-09-02T03:10:25.298Z,0.30
2022-09-02T03:12:52.313Z,0.20
2022-09-02T03:15:19.395Z,0.20
2022-09-02T03:17:48.957Z,0.30
2022-09-02T03:20:16.540Z,0.20
2022-09-02T03:22:43.962Z,0.22
2022-09-02T03:25:11.120Z,0.20
2022-09-02T03:27:39.468Z,0.20
2022-09-02T03:30:10.654Z,0.32
2022-09-02T03:32:37.474Z,0.30
2022-09-02T03:35:04.699Z,0.20
2022-09-02T03:37:31.140Z,0.20
2022-09-02T03:39:57.593Z,0.40
2022-09-02T03:42:24.036Z,0.22
2022-09-02T03:44:50.565Z,0.30
2022-09-02T03:47:18.049Z,0.32
2022-09-02T03:49:47.616Z,0.15
2022-09-02T03:52:14.141Z,0.25
2022-09-02T03:54:40.681Z,0.30
2022-09-02T03:57:07.124Z,0.20
2022-09-02T03:59:33.597Z,0.20
2022-09-02T04:02:02.862Z,0.20
2022-09-02T04:04:29.887Z,0.30
2022-09-02T04:06:56.971Z,0.20
2022-09-02T04:09:23.557Z,0.30
2022-09-02T04:11:50.052Z,0.22
2022-09-02T04:14:17.058Z,0.17
2022-09-02T04:16:43.484Z,0.20
2022-09-02T04:19:10.206Z,0.20
2022-09-02T04:21:37.693Z,0.20
2022-09-02T04:24:05.391Z,0.30
2022-09-02T04:26:31.815Z,0.20
2022-09-02T04:28:58.222Z,0.25
2022-09-02T04:31:25.988Z,0.30
2022-09-02T04:33:53.127Z,0.20
2022-09-02T04:36:20.757Z,0.30
2022-09-02T04:38:47.787Z,0.30
2022-09-02T04:41:19.672Z,0.30
2022-09-02T04:43:46.629Z,0.50
2022-09-02T04:46:13.858Z,0.20
2022-09-02T04:48:42.954Z,0.20
2022-09-02T04:51:11.104Z,0.30
2022-09-02T04:53:38.213Z,0.30
2022-09-02T04:56:05.455Z,0.20
2022-09-02T04:58:32.059Z,0.40
2022-09-02T05:00:58.908Z,0.20
2022-09-02T05:03:26.427Z,0.30
2022-09-02T05:06:19.216Z,0.32
2022-09-02T05:08:48.121Z,0.20
2022-09-02T05:11:19.073Z,0.20
2022-09-02T05:13:48.866Z,0.40
2022-09-02T05:16:16.475Z,0.35
2022-09-02T05:18:43.079Z,0.20
2022-09-02T05:21:09.705Z,0.30
2022-09-02T05:23:36.207Z,0.30
2022-09-02T05:26:06.229Z,0.30
2022-09-02T05:28:32.734Z,0.30
2022-09-02T05:31:06.737Z,0.30
2022-09-02T05:33:33.803Z,0.20
2022-09-02T05:36:00.251Z,0.30
2022-09-02T05:38:26.712Z,0.20
2022-09-02T05:40:53.321Z,0.28
2022-09-02T05:43:19.803Z,0.25
2022-09-02T05:45:48.239Z,0.35
2022-09-02T05:48:33.216Z,0.20
2022-09-02T05:50:59.699Z,0.32
2022-09-02T05:53:27.105Z,0.30
2022-09-02T05:55:53.686Z,0.57
2022-09-02T05:58:20.114Z,0.40
2022-09-02T06:00:46.501Z,0.30
2022-09-02T06:03:13.710Z,0.40
2022-09-02T06:05:41.142Z,0.28
2022-09-02T06:08:07.598Z,0.40
2022-09-02T06:10:34.138Z,0.40
2022-09-02T06:13:00.623Z,0.38
2022-09-02T06:15:28.493Z,0.30
2022-09-02T06:17:59.514Z,0.50
2022-09-02T06:20:29.158Z,0.40
2022-09-02T06:22:55.578Z,0.32
2022-09-02T06:25:22.010Z,0.40
2022-09-02T06:27:48.452Z,0.43
2022-09-02T06:30:14.873Z,0.28
2022-09-02T06:32:41.324Z,0.38
2022-09-02T06:35:08.700Z,0.40
2022-09-02T06:37:35.149Z,0.43
2022-09-02T06:40:01.731Z,0.45
2022-09-02T06:42:28.511Z,0.50
2022-09-02T06:44:55.015Z,0.45
2022-09-02T06:47:21.402Z,0.40
2022-09-02T06:49:47.886Z,0.40
2022-09-02T06:52:14.309Z,0.50
2022-09-02T06:54:40.730Z,0.40
2022-09-02T06:57:07.219Z,0.30
2022-09-02T06:59:33.662Z,0.30
2022-09-02T07:02:00.166Z,0.52
2022-09-02T07:04:45.375Z,0.40
2022-09-02T07:07:12.455Z,0.25
2022-09-02T07:09:39.169Z,0.40
2022-09-02T07:12:05.945Z,0.30
2022-09-02T07:14:36.372Z,0.40
2022-09-02T07:17:03.079Z,0.30
2022-09-02T07:19:29.623Z,0.30
2022-09-02T07:21:56.157Z,0.50
2022-09-02T07:24:23.122Z,0.30
2022-09-02T07:26:49.922Z,0.35
2022-09-02T07:29:22.111Z,0.30
2022-09-02T07:31:48.839Z,0.30
2022-09-02T07:34:15.484Z,0.40
2022-09-02T07:36:42.708Z,0.40
2022-09-02T07:39:10.444Z,0.30
2022-09-02T07:41:36.979Z,0.40
2022-09-02T07:44:04.733Z,0.40
2022-09-02T07:46:32.239Z,0.40
2022-09-02T07:48:59.709Z,0.40
2022-09-02T07:51:30.785Z,0.30
2022-09-02T07:53:57.694Z,0.30
2022-09-02T07:56:24.131Z,0.20
2022-09-02T07:58:50.530Z,0.20
2022-09-02T08:01:22.664Z,0.35
2022-09-02T08:03:50.119Z,0.30
2022-09-02T08:06:17.293Z,0.20
2022-09-02T08:08:48.609Z,0.30
2022-09-02T08:11:15.199Z,0.30
2022-09-02T08:13:41.690Z,0.47
2022-09-02T08:16:08.342Z,0.40
2022-09-02T08:18:35.902Z,0.30
2022-09-02T08:21:02.659Z,0.20
2022-09-02T08:23:37.543Z,0.32
2022-09-02T08:26:05.596Z,0.22
2022-09-02T08:28:32.373Z,0.30
2022-09-02T08:30:59.424Z,0.38
2022-09-02T08:33:26.322Z,0.30
2022-09-02T08:35:52.734Z,0.30
2022-09-02T08:38:19.158Z,0.30
2022-09-02T08:40:45.716Z,0.40
2022-09-02T08:43:18.415Z,0.30
2022-09-02T08:45:45.516Z,0.30
2022-09-02T08:48:14.871Z,0.40
2022-09-02T08:50:43.710Z,0.30
2022-09-02T08:53:28.303Z,0.50
2022-09-02T08:55:55.962Z,0.50
2022-09-02T08:58:24.499Z,0.20
2022-09-02T09:00:55.105Z,0.38
2022-09-02T09:03:34.699Z,0.32
2022-09-02T09:06:01.138Z,0.40
2022-09-02T09:08:34.785Z,0.30
2022-09-02T09:11:02.748Z,0.30
2022-09-02T09:13:29.174Z,0.20
2022-09-02T09:16:01.545Z,0.50
2022-09-02T09:18:34.926Z,0.50
2022-09-02T09:21:01.990Z,0.50
2022-09-02T09:23:34.096Z,0.40
2022-09-02T09:26:08.959Z,0.40
2022-09-02T09:28:40.690Z,0.60
2022-09-02T09:31:10.314Z,0.40
2022-09-02T09:33:36.807Z,0.45
2022-09-02T09:36:05.531Z,0.43
2022-09-02T09:38:36.777Z,0.50
2022-09-02T09:41:21.704Z,0.40
2022-09-02T09:43:48.214Z,0.40
2022-09-02T09:46:27.685Z,0.40
2022-09-02T09:48:54.732Z,0.30
2022-09-02T09:51:21.188Z,0.40
2022-09-02T09:53:47.734Z,0.30
2022-09-02T09:56:14.133Z,0.40
2022-09-02T09:58:40.571Z,0.40
2022-09-02T10:01:12.854Z,0.40
2022-09-02T10:03:43.364Z,0.30
2022-09-02T10:06:19.079Z,0.30
2022-09-02T10:08:53.133Z,0.40
2022-09-02T10:11:21.365Z,0.28
2022-09-02T10:13:47.920Z,0.20
2022-09-02T10:16:14.416Z,0.30
2022-09-02T10:18:44.841Z,0.40
2022-09-02T10:21:44.974Z,0.40
2022-09-02T10:24:23.551Z,0.20
2022-09-02T10:26:53.048Z,0.20
2022-09-02T10:29:22.359Z,0.10
2022-09-02T10:32:00.821Z,0.30
2022-09-02T10:34:44.528Z,0.20
2022-09-02T10:37:16.678Z,0.20
2022-09-02T10:40:01.648Z,0.30
2022-09-02T10:42:36.053Z,0.17
2022-09-02T10:45:02.542Z,0.20
2022-09-02T10:47:32.066Z,0.20
2022-09-02T10:49:58.544Z,0.30
2022-09-02T10:52:33.025Z,0.30
2022-09-02T10:55:08.637Z,0.10
2022-09-02T10:57:55.313Z,0.30
2022-09-02T11:00:23.191Z,0.15
2022-09-02T11:02:49.703Z,0.20
2022-09-02T11:05:35.039Z,0.17
2022-09-02T11:08:05.798Z,0.10
2022-09-02T11:10:36.506Z,0.20
2022-09-02T11:13:20.095Z,0.10
2022-09-02T11:15:57.908Z,0.20
2022-09-02T11:18:39.215Z,0.20
2022-09-02T11:21:19.537Z,0.20
2022-09-02T11:24:04.556Z,0.20
2022-09-02T11:26:40.519Z,0.10
2022-09-02T11:29:27.431Z,0.10
2022-09-02T11:32:10.580Z,0.20
2022-09-02T11:34:40.413Z,0.10
2022-09-02T11:37:15.689Z,0.20
2022-09-02T11:40:11.275Z,0.17
2022-09-02T11:42:52.083Z,0.10
2022-09-02T11:45:18.517Z,0.13
2022-09-02T11:47:46.072Z,0.10
2022-09-02T11:50:28.729Z,0.15
2022-09-02T11:53:16.422Z,0.10
2022-09-02T11:55:46.689Z,0.10
2022-09-02T11:58:29.793Z,0.10
2022-09-02T12:00:58.471Z,0.30
2022-09-02T12:03:42.957Z,0.20
2022-09-02T12:06:19.283Z,0.10
2022-09-02T12:08:45.873Z,0.20
2022-09-02T12:11:30.939Z,0.10
2022-09-02T12:13:59.991Z,0.10
2022-09-02T12:16:28.304Z,0.10
2022-09-02T12:18:54.790Z,0.10
2022-09-02T12:21:23.375Z,0.10
2022-09-02T12:23:56.011Z,0.10
2022-09-02T12:26:30.459Z,0.20
2022-09-02T12:29:15.556Z,0.10
2022-09-02T12:31:44.491Z,0.10
2022-09-02T12:34:20.118Z,0.10
2022-09-02T12:36:52.519Z,0.10
2022-09-02T12:39:28.305Z,0.15
2022-09-02T12:41:57.775Z,0.10
2022-09-02T12:44:30.267Z,0.20
2022-09-02T12:47:02.911Z,0.20
2022-09-02T12:49:35.776Z,0.20
2022-09-02T12:52:04.079Z,0.10
2022-09-02T12:54:42.493Z,0.10
2022-09-02T12:57:09.900Z,0.10
2022-09-02T12:59:38.047Z,0.10
2022-09-02T13:02:26.766Z,0.10
2022-09-02T13:04:58.879Z,0.10
2022-09-02T13:07:28.400Z,0.10
2022-09-02T13:10:14.588Z,0.20
2022-09-02T13:12:59.825Z,0.13
2022-09-02T13:15:55.673Z,0.10
2022-09-02T13:18:36.026Z,0.10
2022-09-02T13:21:08.803Z,0.20
2022-09-02T13:23:44.377Z,0.20
2022-09-02T13:26:45.472Z,0.10
2022-09-02T13:29:21.047Z,0.22
2022-09-02T13:32:10.775Z,0.10
2022-09-02T13:34:44.481Z,0.20
2022-09-02T13:37:29.745Z,0.10
2022-09-02T13:39:56.632Z,0.20
2022-09-02T13:42:24.296Z,0.10
2022-09-02T13:44:51.322Z,0.20
2022-09-02T13:47:21.750Z,0.20
2022-09-02T13:49:49.610Z,0.25
2022-09-02T13:52:23.992Z,0.10
2022-09-02T13:55:01.129Z,0.20
2022-09-02T13:57:29.240Z,0.20
2022-09-02T13:59:56.472Z,0.30
2022-09-02T14:02:28.765Z,0.20
2022-09-02T14:05:15.552Z,0.17
2022-09-02T14:07:45.398Z,0.10
2022-09-02T14:10:15.123Z,0.10
2022-09-02T14:12:42.153Z,0.10
2022-09-02T14:15:10.362Z,0.20
2022-09-02T14:17:36.975Z,0.20
2022-09-02T14:20:19.514Z,0.38
2022-09-02T14:22:53.161Z,0.22
2022-09-02T14:25:22.247Z,0.28
2022-09-02T14:27:56.270Z,0.13
2022-09-02T14:30:36.524Z,0.20
2022-09-02T14:33:21.513Z,0.20
2022-09-02T14:36:01.752Z,0.22
2022-09-02T14:38:34.043Z,0.20
2022-09-02T14:41:11.996Z,0.10
2022-09-02T14:43:44.279Z,0.10
2022-09-02T14:46:14.877Z,0.10
2022-09-02T14:48:41.424Z,0.10
2022-09-02T14:51:08.229Z,0.10
2022-09-02T14:53:37.562Z,0.20
2022-09-02T14:56:05.095Z,0.10
2022-09-02T14:58:31.586Z,0.20
2022-09-02T15:00:59.303Z,0.15
2022-09-02T15:03:26.174Z,0.10
2022-09-02T15:05:53.768Z,0.20
2022-09-02T15:08:21.158Z,0.13
2022-09-02T15:10:48.336Z,0.10
2022-09-02T15:13:20.913Z,0.10
2022-09-02T15:15:47.708Z,0.20
2022-09-02T15:18:14.318Z,0.10
2022-09-02T15:20:40.812Z,0.20
2022-09-02T15:23:07.303Z,0.10
2022-09-02T15:25:34.406Z,0.10
2022-09-02T15:28:01.089Z,0.17
2022-09-02T15:30:27.663Z,0.10
2022-09-02T15:32:54.101Z,0.10
2022-09-02T15:35:20.624Z,0.20
2022-09-02T15:37:49.745Z,0.10
2022-09-02T15:40:16.514Z,0.10
2022-09-02T15:42:43.352Z,0.20
2022-09-02T15:45:10.205Z,0.20
2022-09-02T15:47:37.322Z,0.20
2022-09-02T15:50:07.036Z,0.10
2022-09-02T15:52:33.970Z,0.20
2022-09-02T15:55:00.434Z,0.10
2022-09-02T15:57:27.082Z,0.20
2022-09-02T15:59:53.608Z,0.10
2022-09-02T16:02:20.118Z,0.10
2022-09-02T16:04:46.638Z,0.10
2022-09-02T16:07:16.794Z,0.30
2022-09-02T16:09:43.895Z,0.30
2022-09-02T16:12:11.236Z,0.20
2022-09-02T16:14:37.739Z,0.13
2022-09-02T16:17:04.272Z,0.17
2022-09-02T16:19:30.779Z,0.20
2022-09-02T16:21:57.889Z,0.20
2022-09-02T16:24:24.563Z,0.20
2022-09-02T16:26:51.257Z,0.20
2022-09-02T16:30:04.512Z,0.20
2022-09-02T16:32:31.772Z,0.20
2022-09-02T16:34:58.346Z,0.20
2022-09-02T16:37:24.805Z,0.10
2022-09-02T16:39:51.611Z,0.20
2022-09-02T16:42:18.143Z,0.20
2022-09-02T16:44:45.024Z,0.20
2022-09-02T16:47:11.787Z,0.20
2022-09-02T16:49:40.614Z,0.20
2022-09-02T16:52:07.073Z,0.30
2022-09-02T16:54:37.380Z,0.20
2022-09-02T16:57:06.649Z,0.20
2022-09-02T16:59:33.123Z,0.20
2022-09-02T17:01:59.692Z,0.20
2022-09-02T17:04:26.250Z,0.20
2022-09-02T17:06:52.701Z,0.20
2022-09-02T17:09:19.260Z,0.25
2022-09-02T17:11:45.762Z,0.28
2022-09-02T17:14:16.620Z,0.20
2022-09-02T17:16:55.601Z,0.28
2022-09-02T17:19:22.755Z,0.30
2022-09-02T17:21:53.139Z,0.30
2022-09-02T17:24:21.413Z,0.40
2022-09-02T17:26:50.670Z,0.38
2022-09-02T17:29:46.887Z,0.20
2022-09-02T17:32:06.218Z,0.20
2022-09-02T17:34:33.833Z,0.20
2022-09-02T17:37:00.434Z,0.20
2022-09-02T17:39:27.175Z,0.20
2022-09-02T17:41:59.764Z,0.30
2022-09-02T17:44:35.068Z,0.30
2022-09-02T17:47:12.184Z,0.30
2022-09-02T17:49:38.964Z,0.20
2022-09-02T17:52:06.909Z,0.30
2022-09-02T17:54:34.483Z,0.30
2022-09-02T17:57:04.136Z,0.20
2022-09-02T17:59:36.443Z,0.25
2022-09-02T18:02:28.460Z,0.30
2022-09-02T18:05:14.459Z,0.35
2022-09-02T18:07:41.484Z,0.20
2022-09-02T18:10:07.990Z,0.40
2022-09-02T18:12:36.501Z,0.20
2022-09-02T18:15:04.846Z,0.30
2022-09-02T18:17:35.479Z,0.30
2022-09-02T18:20:13.423Z,0.20
2022-09-02T18:22:45.554Z,0.32
2022-09-02T18:25:11.972Z,0.20
2022-09-02T18:27:50.656Z,0.20
2022-09-02T18:30:31.237Z,0.40
2022-09-02T18:33:09.892Z,0.20
2022-09-02T18:35:36.659Z,0.30
2022-09-02T18:38:07.764Z,0.40
2022-09-02T18:40:44.177Z,0.30
2022-09-02T18:43:24.340Z,0.30
2022-09-02T18:45:52.126Z,0.30
2022-09-02T18:48:21.742Z,0.40
2022-09-02T18:50:54.446Z,0.40
2022-09-02T18:53:27.751Z,0.50
2022-09-02T18:55:56.085Z,0.40
2022-09-02T18:58:31.688Z,0.50
2022-09-02T19:01:03.378Z,0.40
2022-09-02T19:03:33.465Z,0.50
2022-09-02T19:06:00.026Z,0.32
2022-09-02T19:08:37.946Z,0.40
2022-09-02T19:11:15.104Z,0.68
2022-09-02T19:13:44.044Z,0.60
2022-09-02T19:16:11.423Z,0.77
2022-09-02T19:18:37.983Z,0.40
2022-09-02T19:21:04.480Z,0.40
2022-09-02T19:23:31.421Z,0.40
2022-09-02T19:25:59.319Z,0.47
2022-09-02T19:28:26.640Z,0.50
2022-09-02T19:30:57.315Z,0.60
2022-09-02T19:33:23.829Z,0.80
2022-09-02T19:35:50.780Z,0.50
2022-09-02T19:38:17.902Z,0.60
2022-09-02T19:40:54.980Z,0.60
2022-09-02T19:43:21.632Z,0.50
2022-09-02T19:45:51.513Z,0.70
2022-09-02T19:48:18.658Z,0.50
2022-09-02T19:50:46.649Z,0.50
2022-09-02T19:53:34.856Z,0.70
2022-09-02T19:56:01.721Z,0.60
2022-09-02T19:58:28.252Z,0.60
2022-09-02T20:00:56.203Z,0.77
2022-09-02T20:03:22.890Z,0.50
2022-09-02T20:05:49.814Z,0.80
2022-09-02T20:08:17.542Z,0.52
2022-09-02T20:10:45.929Z,0.70
2022-09-02T20:13:14.358Z,0.52
2022-09-02T20:15:40.803Z,0.50
2022-09-02T20:18:09.293Z,0.40
2022-09-02T20:20:35.774Z,0.60
2022-09-02T20:23:02.920Z,0.60
2022-09-02T20:25:43.492Z,0.60
2022-09-02T20:28:22.125Z,0.60
2022-09-02T20:30:52.016Z,0.60
2022-09-02T20:33:22.501Z,0.70
2022-09-02T20:36:07.108Z,0.77
2022-09-02T20:38:41.690Z,0.50
2022-09-02T20:41:11.653Z,0.55
2022-09-02T20:43:47.452Z,0.82
2022-09-02T20:46:19.863Z,0.50
2022-09-02T20:48:52.738Z,0.63
2022-09-02T20:51:23.557Z,0.73
2022-09-02T20:54:08.760Z,0.60
2022-09-02T20:56:35.460Z,0.55
2022-09-02T20:59:11.072Z,0.60
2022-09-02T21:01:39.760Z,0.52
2022-09-02T21:04:24.897Z,0.60
2022-09-02T21:07:01.305Z,0.60
2022-09-02T21:09:27.711Z,0.40
2022-09-02T21:12:00.658Z,0.55
2022-09-02T21:14:31.783Z,0.60
2022-09-02T21:17:04.661Z,0.55
2022-09-02T21:19:41.596Z,0.60
2022-09-02T21:22:11.459Z,0.65
2022-09-02T21:24:37.923Z,0.70
2022-09-02T21:27:14.353Z,0.75
2022-09-02T21:30:02.568Z,0.73
2022-09-02T21:32:35.666Z,0.60
2022-09-02T21:35:22.425Z,0.50
2022-09-02T21:37:52.089Z,0.57
2022-09-02T21:40:19.541Z,0.50
2022-09-02T21:42:55.328Z,0.50
2022-09-02T21:45:24.850Z,0.50
2022-09-02T21:47:56.789Z,0.57
2022-09-02T21:50:28.110Z,0.47
2022-09-02T21:53:00.672Z,0.55
2022-09-02T21:55:27.090Z,0.60
2022-09-02T21:58:12.040Z,0.60
2022-09-02T22:00:43.469Z,0.63
2022-09-02T22:03:12.688Z,0.70
2022-09-02T22:05:47.635Z,0.57
2022-09-02T22:08:20.932Z,0.52
2022-09-02T22:10:51.994Z,0.90
2022-09-02T22:13:18.614Z,0.70
2022-09-02T22:15:56.517Z,0.43
2022-09-02T22:19:01.739Z,0.45
2022-09-02T22:21:39.848Z,0.60
2022-09-02T22:24:06.854Z,0.60
2022-09-02T22:26:44.167Z,0.50
2022-09-02T22:29:16.878Z,0.63
2022-09-02T22:31:45.288Z,0.60
2022-09-02T22:34:15.445Z,0.70
2022-09-02T22:36:49.789Z,0.50
2022-09-02T22:39:17.317Z,0.45
2022-09-02T22:41:47.791Z,0.52
2022-09-02T22:44:17.720Z,0.68
2022-09-02T22:47:22.176Z,0.68
2022-09-02T22:50:11.645Z,0.63
2022-09-02T22:52:54.816Z,0.70
2022-09-02T22:55:33.311Z,0.70
2022-09-02T22:57:59.700Z,0.63
2022-09-02T23:00:28.062Z,0.52
2022-09-02T23:03:11.978Z,0.50
2022-09-02T23:05:50.582Z,0.60
2022-09-02T23:08:20.394Z,0.40
2022-09-02T23:10:49.941Z,0.55
2022-09-02T23:13:26.616Z,0.40
2022-09-02T23:15:58.615Z,0.60
2022-09-02T23:21:16.930Z,0.50
2022-09-02T23:23:59.117Z,0.68
2022-09-02T23:26:34.039Z,0.50
2022-09-02T23:29:16.033Z,0.50
2022-09-02T23:31:45.693Z,0.60
2022-09-02T23:34:30.595Z,0.40
2022-09-02T23:37:04.600Z,0.47
2022-09-02T23:39:33.869Z,0.60
2022-09-02T23:42:00.797Z,0.40
2022-09-02T23:44:29.029Z,0.50
2022-09-02T23:47:04.528Z,0.50
2022-09-02T23:49:38.164Z,0.40
2022-09-02T23:52:21.308Z,0.50
2022-09-02T23:54:56.446Z,0.52
2022-09-02T23:57:29.819Z,0.43
2022-09-02T23:59:56.284Z,0.50
